Latest Weather Observations for Century Mine

IDQ60801

Issued at 11:02 am EST Friday 12 February 2016 (issued every 30 minutes, with the page automatically refreshed every 10 minutes)

About weather observations | Map of weather stations | Latest weather observations for QLD | Other Formats
Station Details ID: 029167 Name: CENTURY MINE Lat: -18.76 Lon: 138.71 Height: 126.8 m
Data from the previous 72 hours. | See also: Recent months at Century Mine
Date/Time
EST
Temp
°C
App
Temp
°C
Dew
Point
Rel
Hum
%
Delta-T
°C
Wind Press
QNH
hPa
Press
MSL
hPa
Rain
since 9 am
mm
Dir
 
Spd
km/h
Gust
km/h
Spd
kts
Gust
kts
12/11:00am 35.2 34.9 15.5 30 12.4 SE 11 17 6 9 1009.7 1008.8 0.0
12/10:30am 34.0 34.6 16.8 35 11.0 SSE 9 15 5 8 1010.0 1009.1 0.0
12/10:00am 33.1 35.1 19.2 43 9.2 SSE 7 13 4 7 1010.3 1009.4 0.0
12/09:30am 32.1 34.0 19.7 48 8.2 S 9 13 5 7 1010.4 1009.5 0.0
12/09:00am 30.7 33.7 20.9 56 6.6 SSW 6 9 3 5 1010.5 1009.6 0.0
12/08:30am 29.3 32.8 21.8 64 5.1 SSE 6 11 3 6 1010.4 1009.5 0.0
12/08:00am 27.5 31.5 22.0 72 3.7 S 4 9 2 5 1010.2 1009.3 0.0
12/07:30am 25.3 30.8 23.4 89 1.3 CALM 0 6 0 3 1009.9 1009.0 0.0
12/07:00am 23.8 27.4 22.1 90 1.1 S 6 7 3 4 1009.4 1008.5 0.0
12/06:30am 23.4 26.6 21.7 90 1.1 S 7 9 4 5 1009.0 1008.1 0.0
12/06:00am 23.7 27.6 21.8 89 1.3 SSE 4 7 2 4 1008.7 1007.8 0.0
12/05:30am 23.8 27.7 21.9 89 1.3 S 4 9 2 5 1008.2 1007.3 0.0
12/05:00am 24.0 27.6 22.1 89 1.3 SSW 6 9 3 5 1007.9 1007.0 0.0
12/04:30am 23.9 27.4 22.2 90 1.1 SSW 7 9 4 5 1007.8 1006.9 0.0
12/04:00am 23.9 28.6 22.0 89 1.3 CALM 0 0 0 0 1007.7 1006.8 0.0
12/03:30am 24.2 29.0 22.1 88 1.4 CALM 0 0 0 0 1007.8 1006.9 0.0
12/03:00am 24.5 29.3 22.2 87 1.5 CALM 0 0 0 0 1007.8 1006.9 0.0
12/02:30am 24.9 29.8 22.4 86 1.7 CALM 0 0 0 0 1007.8 1006.9 0.0
12/02:00am 24.5 29.0 21.6 84 1.9 CALM 0 0 0 0 1008.0 1007.1 0.0
12/01:30am 24.7 29.1 21.4 82 2.2 CALM 0 2 0 1 1008.2 1007.3 0.0
12/01:00am 24.8 28.5 21.5 82 2.2 WNW 4 7 2 4 1008.3 1007.4 0.0
12/12:30am 24.7 27.8 21.4 82 2.2 WNW 7 9 4 5 1008.4 1007.5 0.0
12/12:00am 25.2 29.2 20.5 75 3.1 CALM 0 0 0 0 1008.7 1007.8 0.0
 
Date/Time
EST
Temp
°C
App
Temp
°C
Dew
Point
Rel
Hum
%
Delta-T
°C
Wind Press
QNH
hPa
Press
MSL
hPa
Rain
since 9 am
mm
Dir
 
Spd
km/h
Gust
km/h
Spd
kts
Gust
kts
11/11:30pm 25.7 30.0 21.1 76 3.0 CALM 0 0 0 0 1008.8 1007.9 0.0
11/11:00pm 26.0 30.4 21.4 76 3.1 CALM 0 0 0 0 1008.9 1008.0 0.0
11/10:30pm 26.6 31.2 21.8 75 3.2 CALM 0 0 0 0 1008.8 1007.9 0.0
11/10:00pm 27.0 30.3 21.5 72 3.7 SE 6 7 3 4 1008.5 1007.6 0.0
11/09:30pm 27.6 30.6 20.9 67 4.5 ESE 6 7 3 4 1008.2 1007.3 0.0
11/09:00pm 28.4 32.3 20.4 62 5.3 CALM 0 7 0 4 1007.8 1006.9 0.0
11/08:30pm 29.6 32.7 18.7 52 7.1 CALM 0 0 0 0 1007.5 1006.5 0.0
11/08:00pm 31.5 32.8 17.0 41 9.2 E 6 9 3 5 1007.3 1006.3 0.0
11/07:30pm 32.6 33.2 16.8 38 10.1 E 9 15 5 8 1006.9 1005.9 0.0
11/07:00pm 33.4 34.1 17.1 37 10.5 E 9 13 5 7 1006.4 1005.4 0.0
11/06:30pm 34.1 34.5 17.3 36 10.8 E 11 15 6 8 1006.1 1005.1 0.0
11/06:00pm 34.1 34.9 17.3 36 10.8 E 9 17 5 9 1005.8 1004.8 0.0
11/05:30pm 34.6 36.0 18.6 38 10.5 ENE 9 15 5 8 1005.5 1004.5 0.0
11/05:00pm 34.7 36.7 19.9 42 9.9 ENE 9 17 5 9 1005.3 1004.3 0.0
11/04:30pm 33.6 34.9 18.5 40 9.9 ESE 9 13 5 7 1005.3 1004.3 0.0
11/04:00pm 33.3 34.1 19.0 42 9.4 E 13 17 7 9 1005.6 1004.6 0.0
11/03:30pm 32.2 32.5 18.0 42 9.2 SE 13 20 7 11 1005.8 1004.8 0.0
11/03:00pm 33.7 33.7 18.2 39 10.1 ESE 15 20 8 11 1005.9 1004.9 0.0
11/02:30pm 34.9 35.1 18.5 38 10.8 E 15 22 8 12 1006.2 1005.2 0.0
11/02:00pm 34.5 35.2 18.9 39 10.3 ENE 13 20 7 11 1006.6 1005.6 0.0
11/01:30pm 34.2 34.8 18.7 40 10.2 E 13 20 7 11 1007.2 1006.2 0.0
11/01:00pm 35.1 37.4 21.4 45 9.4 E 11 19 6 10 1007.7 1006.8 0.0
11/12:30pm 34.3 35.5 20.7 45 9.2 E 15 20 8 11 1008.1 1007.2 0.0
11/12:00pm 34.0 35.6 21.4 47 8.6 E 15 24 8 13 1008.5 1007.6 0.0
11/11:30am 33.4 36.0 21.9 51 7.9 E 11 22 6 12 1008.8 1007.9 0.0
11/11:00am 32.8 34.9 21.0 50 8.0 E 11 19 6 10 1009.1 1008.2 0.0
11/10:30am 32.3 35.2 21.8 54 7.1 ENE 9 17 5 9 1009.2 1008.3 0.0
11/10:00am 31.8 35.3 22.8 59 6.2 ESE 9 15 5 8 1009.5 1008.6 0.0
11/09:30am 30.3 33.6 21.9 60 5.7 SE 7 13 4 7 1009.4 1008.5 0.0
11/09:00am 29.2 31.7 21.7 64 5.1 ESE 11 15 6 8 1009.3 1008.4 0.4
11/08:30am 28.0 31.1 22.2 70 3.9 SE 9 15 5 8 1009.1 1008.2 0.4
11/08:00am 27.6 30.8 21.6 70 4.0 SSE 7 11 4 6 1009.0 1008.1 0.4
11/07:30am 25.8 29.4 22.1 80 2.5 SSE 6 11 3 6 1008.6 1007.7 0.4
11/07:00am 25.0 28.5 22.1 84 1.9 S 7 11 4 6 1008.2 1007.3 0.4
11/06:30am 24.8 27.9 21.5 82 2.2 SSE 7 9 4 5 1007.8 1006.9 0.4
11/06:00am 24.9 28.1 21.6 82 2.2 SSE 7 11 4 6 1007.2 1006.2 0.4
11/05:30am 25.0 28.2 21.7 82 2.2 SSE 7 11 4 6 1006.9 1005.9 0.4
11/05:00am 24.9 27.9 22.0 84 1.9 S 9 11 5 6 1006.7 1005.7 0.4
11/04:30am 24.9 28.8 22.6 87 1.6 ESE 6 9 3 5 1006.6 1005.6 0.4
11/04:00am 25.0 28.9 22.5 86 1.7 ESE 6 7 3 4 1006.3 1005.3 0.4
11/03:30am 24.9 29.8 22.4 86 1.7 CALM 0 0 0 0 1006.4 1005.4 0.4
11/03:00am 24.9 29.8 22.4 86 1.7 CALM 0 0 0 0 1006.8 1005.8 0.4
11/02:30am 24.8 29.7 22.3 86 1.7 CALM 0 0 0 0 1007.0 1006.0 0.4
11/02:00am 24.8 29.4 21.7 83 2.1 CALM 0 0 0 0 1007.4 1006.4 0.4
11/01:30am 24.5 28.3 21.6 84 1.9 W 4 9 2 5 1007.8 1006.9 0.4
11/01:00am 24.5 27.6 21.4 83 2.1 W 7 13 4 7 1008.2 1007.3 0.4
11/12:30am 24.9 27.7 21.6 82 2.2 SW 9 13 5 7 1008.4 1007.5 0.2
11/12:00am 25.3 27.8 21.8 81 2.3 W 11 20 6 11 1008.7 1007.8 0.2
 
Date/Time
EST
Temp
°C
App
Temp
°C
Dew
Point
Rel
Hum
%
Delta-T
°C
Wind Press
QNH
hPa
Press
MSL
hPa
Rain
since 9 am
mm
Dir
 
Spd
km/h
Gust
km/h
Spd
kts
Gust
kts
10/11:30pm 26.4 29.9 22.9 81 2.4 NW 9 11 5 6 1009.1 1008.2 0.2
10/11:00pm 27.4 31.5 23.2 78 2.9 N 7 13 4 7 1009.1 1008.2 0.2
10/10:30pm 27.8 31.6 23.4 77 3.0 NNE 9 13 5 7 1008.6 1007.7 0.2
10/10:00pm 27.7 30.8 22.9 75 3.3 N 11 15 6 8 1008.1 1007.2 0.2
10/09:30pm 28.1 30.8 22.8 73 3.6 NNE 13 20 7 11 1007.3 1006.3 0.2
10/09:00pm 28.5 31.7 23.0 72 3.8 NNE 11 17 6 9 1007.2 1006.2 0.2
10/08:30pm 28.9 32.4 22.9 70 4.1 NNE 9 15 5 8 1006.5 1005.5 0.2
10/08:00pm 29.4 32.5 22.9 68 4.5 NNE 11 15 6 8 1006.4 1005.4 0.2
10/07:30pm 29.9 32.1 22.6 65 5.0 NNE 15 22 8 12 1005.9 1004.9 0.2
10/07:00pm 32.8 33.3 20.0 47 8.5 NE 17 24 9 13 1005.4 1004.4 0.2
10/06:30pm 34.0 35.1 19.6 42 9.6 ENE 13 20 7 11 1004.9 1003.9 0.2
10/06:00pm 34.4 36.0 20.0 42 9.7 E 11 17 6 9 1004.7 1003.7 0.2
10/05:30pm 34.7 35.7 19.5 40 10.1 NE 13 22 7 12 1004.5 1003.5 0.2
10/05:00pm 34.7 36.5 19.5 40 10.1 E 9 17 5 9 1004.3 1003.3 0.2
10/04:30pm 34.8 35.9 19.6 40 10.1 ESE 13 17 7 9 1004.2 1003.2 0.2
10/04:00pm 35.1 37.1 19.9 41 10.2 ENE 9 24 5 13 1004.5 1003.5 0.2
10/03:30pm 34.6 36.3 19.4 40 10.1 SE 9 19 5 10 1004.8 1003.8 0.2
10/03:00pm 34.6 35.9 20.2 43 9.7 E 13 19 7 10 1005.3 1004.3 0.2
10/02:30pm 33.7 35.2 19.0 42 9.7 ESE 9 17 5 9 1005.5 1004.5 0.2
10/02:00pm 33.7 35.9 21.2 48 8.5 E 11 20 6 11 1006.1 1005.1 0.2
10/01:30pm 32.7 34.6 20.6 49 8.1 ESE 11 17 6 9 1006.6 1005.6 0.2
10/01:00pm 32.8 36.6 21.0 50 8.0 SSE 2 13 1 7 1007.3 1006.3 0.2
10/12:30pm 33.2 36.6 22.0 51 7.7 E 7 13 4 7 1007.8 1006.9 0.2
10/12:00pm 32.1 35.5 21.6 53 7.1 N 6 13 3 7 1008.1 1007.2 0.2
10/11:30am 31.2 33.6 20.8 54 7.0 NE 9 13 5 7 1008.5 1007.6 0.2
10/11:00am 31.0 34.4 22.0 58 6.1 SE 7 13 4 7 1008.7 1007.8 0.2
10/10:30am 30.0 33.4 21.7 61 5.6 SE 6 9 3 5 1008.8 1007.9 0.2
10/10:00am 29.7 34.2 22.9 67 4.7 E 4 15 2 8 1008.9 1008.0 0.0
10/09:30am 28.9 32.8 22.6 69 4.3 ESE 6 11 3 6 1009.4 1008.5 0.0
10/09:00am 28.0 31.5 22.9 74 3.5 ESE 9 15 5 8 1009.1 1008.2 0.8
10/08:30am 26.9 30.4 22.9 79 2.7 SE 9 13 5 7 1008.9 1008.0 0.8
10/08:00am 26.3 30.1 23.4 84 2.0 ESE 9 11 5 6 1008.9 1008.0 0.8
10/07:30am 25.9 29.8 23.6 87 1.6 ESE 9 11 5 6 1008.6 1007.7 0.8
10/07:00am 25.7 30.2 23.6 88 1.4 SE 6 7 3 4 1008.3 1007.4 0.8
10/06:30am 25.6 31.2 23.5 88 1.4 CALM 0 2 0 1 1008.1 1007.2 0.8
10/06:00am 25.6 31.0 23.3 87 1.6 CALM 0 0 0 0 1007.5 1006.5 0.8
10/05:30am 25.6 31.2 23.5 88 1.4 CALM 0 0 0 0 1007.0 1006.0 0.8
10/05:00am 25.5 31.1 23.6 89 1.3 CALM 0 0 0 0 1006.8 1005.8 0.8
10/04:30am 25.4 31.0 23.6 90 1.2 CALM 0 0 0 0 1006.7 1005.7 0.8
10/04:00am 25.2 29.6 23.4 90 1.2 SSE 6 7 3 4 1006.1 1005.1 0.8
10/03:30am 25.3 30.8 23.4 89 1.3 CALM 0 0 0 0 1006.1 1005.1 0.8
10/03:00am 25.3 29.7 23.4 89 1.3 SE 6 7 3 4 1006.7 1005.7 0.8
10/02:30am 25.3 29.5 23.2 88 1.4 NNE 6 9 3 5 1007.3 1006.3 0.4
10/02:00am 25.3 29.4 23.0 87 1.6 NNE 6 9 3 5 1007.6 1006.7 0.2
10/01:30am 25.9 29.3 23.4 86 1.7 NNW 11 15 6 8 1008.2 1007.3 0.0
10/01:00am 26.1 29.7 23.0 83 2.1 NW 9 11 5 6 1008.5 1007.6 0.0
10/12:30am 26.6 29.0 22.9 80 2.5 NNW 15 20 8 11 1009.1 1008.2 0.0
10/12:00am 27.2 29.9 22.8 77 3.0 N 13 17 7 9 1009.5 1008.6 0.0
 
Date/Time
EST
Temp
°C
App
Temp
°C
Dew
Point
Rel
Hum
%
Delta-T
°C
Wind Press
QNH
hPa
Press
MSL
hPa
Rain
since 9 am
mm
Dir
 
Spd
km/h
Gust
km/h
Spd
kts
Gust
kts
09/11:30pm 27.6 30.3 22.1 72 3.7 N 11 15 6 8 1009.3 1008.4 0.0
09/11:00pm 27.6 30.7 21.4 69 4.2 NNE 7 11 4 6 1009.1 1008.2 0.0
09/10:30pm 27.6 28.9 21.6 70 4.0 E 17 20 9 11 1008.6 1007.7 0.0
09/10:00pm 27.4 30.1 22.1 73 3.6 ESE 11 15 6 8 1008.9 1008.0 0.0
09/09:30pm 27.6 30.6 21.9 71 3.8 SE 9 15 5 8 1009.0 1008.1 0.0
09/09:00pm 27.8 30.1 22.1 71 3.9 E 13 20 7 11 1009.0 1008.1 0.0
09/08:30pm 28.5 30.1 21.5 66 4.7 E 15 24 8 13 1008.8 1007.9 0.0
09/08:00pm 28.8 32.6 21.6 65 4.9 ESE 4 9 2 5 1008.0 1007.1 0.0
09/07:30pm 28.5 29.3 21.8 67 4.5 SSE 20 32 11 17 1007.0 1006.0 0.0
09/07:00pm 28.9 28.4 21.4 64 5.0 S 26 44 14 24 1006.3 1005.3 0.0
09/06:30pm 29.7 28.4 21.4 61 5.6 S 30 50 16 27 1006.0 1005.0 0.0
09/06:29pm 29.7 28.3 21.1 60 5.8 S 30 48 16 26 1006.0 1005.0 0.0
09/06:00pm 31.4 30.9 19.1 48 8.1 SSW 20 43 11 23 1005.5 1004.5 0.0
09/05:58pm 31.8 31.6 18.4 45 8.7 SW 17 41 9 22 1005.5 1004.5 0.0
09/05:30pm 36.7 37.9 16.8 30 12.8 NNW 6 13 3 7 1004.6 1003.6 0.0
09/05:00pm 36.9 37.8 17.5 32 12.7 N 9 15 5 8 1004.6 1003.6 0.0
09/04:30pm 37.4 38.1 17.9 31 12.8 N 11 19 6 10 1004.6 1003.6 0.0
09/04:00pm 37.4 38.3 18.4 32 12.6 N 11 19 6 10 1004.5 1003.5 0.0
09/03:30pm 37.3 37.3 17.3 30 13.0 NNW 13 20 7 11 1004.7 1003.7 0.0
09/03:00pm 37.7 38.9 18.2 32 12.9 NW 9 17 5 9 1005.3 1004.3 0.0
09/02:30pm 37.2 38.8 19.2 35 12.0 NE 9 17 5 9 1005.9 1004.9 0.0
09/02:00pm 37.0 38.7 19.4 35 11.8 NNW 9 17 5 9 1006.5 1005.5 0.0
09/01:30pm 36.8 38.6 18.4 34 12.1 NW 6 13 3 7 1007.1 1006.1 0.0
09/01:00pm 35.5 37.2 18.6 37 11.1 NE 7 15 4 8 1007.5 1006.5 0.0
09/12:30pm 35.9 37.4 18.9 36 11.2 NNE 9 15 5 8 1007.8 1006.9 0.0
09/12:00pm 34.8 35.9 18.0 37 11.0 NE 9 17 5 9 1008.3 1007.4 0.0
09/11:30am 34.9 35.8 18.5 38 10.8 N 11 17 6 9 1008.4 1007.5 0.0

Other Formats:

Comma delimited format used in spreadsheet applications
http://www.bom.gov.au/fwo/IDQ60801/IDQ60801.94261.axf

JavaScript Object Notation format (JSON) in row-major order
http://www.bom.gov.au/fwo/IDQ60801/IDQ60801.94261.json